Time;durP1;ratioP1;P1;durP2;ratioP2;P2;SDS_P1;SDS_P2;PMS_P1;PMS_P2;Temp;Humidity;BMP_temperature;BMP_pressure;BME280_temperature;BME280_humidity;BME280_pressure;Samples;Min_cycle;Max_cycle;Signal;HPM_P1;HPM_P2
2021/07/16 00:01:22;;;;;;;5.53;3.67;;;18.30;99.90;;;;;;5079063;28;20444;-84
2021/07/16 00:03:48;;;;;;;5.53;4.07;;;18.30;99.90;;;;;;5079303;28;20394;-84
2021/07/16 00:06:14;;;;;;;5.90;3.87;;;18.00;99.90;;;;;;5079298;28;20465;-84
2021/07/16 00:08:39;;;;;;;4.70;4.20;;;18.00;99.90;;;;;;5078703;28;20293;-84
2021/07/16 00:11:05;;;;;;;4.13;3.73;;;18.10;99.90;;;;;;5078495;28;20832;-84
2021/07/16 00:13:31;;;;;;;4.97;3.73;;;18.10;99.90;;;;;;5077329;28;20167;-84
2021/07/16 00:15:58;;;;;;;5.03;3.63;;;18.10;99.90;;;;;;5077997;28;20305;-84
2021/07/16 00:18:24;;;;;;;4.10;3.80;;;18.00;99.90;;;;;;5077276;28;20167;-84
2021/07/16 00:20:50;;;;;;;4.80;3.87;;;18.00;99.90;;;;;;5077272;28;20452;-84
2021/07/16 00:23:16;;;;;;;4.37;3.93;;;18.00;99.90;;;;;;5077328;28;20198;-84
2021/07/16 00:25:42;;;;;;;6.10;4.53;;;17.90;99.90;;;;;;5077214;28;20393;-83
2021/07/16 00:28:08;;;;;;;4.17;3.87;;;17.80;99.90;;;;;;5077482;28;20745;-84
2021/07/16 00:30:35;;;;;;;4.60;4.20;;;17.70;99.90;;;;;;5077685;28;20159;-84
2021/07/16 00:33:02;;;;;;;8.13;3.70;;;17.70;99.90;;;;;;5077680;28;20470;-84
2021/07/16 00:35:28;;;;;;;4.53;4.13;;;17.70;99.90;;;;;;5077018;28;20389;-84
2021/07/16 00:37:54;;;;;;;6.17;3.60;;;17.70;99.90;;;;;;5077341;28;20779;-83
2021/07/16 00:40:19;;;;;;;4.87;4.40;;;17.70;99.90;;;;;;5077029;28;20438;-84
2021/07/16 00:42:45;;;;;;;4.83;4.43;;;17.70;99.90;;;;;;5076845;28;20213;-84
2021/07/16 00:45:14;;;;;;;9.00;4.20;;;17.70;99.90;;;;;;5077369;28;20170;-84
2021/07/16 00:47:42;;;;;;;6.20;3.60;;;17.80;99.90;;;;;;5077313;28;20167;-83
2021/07/16 00:50:13;;;;;;;4.50;3.67;;;17.80;99.90;;;;;;5077032;28;20390;-84
2021/07/16 00:52:41;;;;;;;8.80;3.23;;;17.80;99.90;;;;;;5075741;28;20402;-84
2021/07/16 00:55:08;;;;;;;4.90;3.80;;;17.80;99.90;;;;;;5077118;28;20881;-84
2021/07/16 00:57:34;;;;;;;4.43;4.03;;;17.80;99.90;;;;;;5077319;28;20929;-84
2021/07/16 01:00:01;;;;;;;8.07;4.07;;;17.80;99.90;;;;;;5081188;28;20542;-85
2021/07/16 01:02:27;;;;;;;4.47;4.07;;;17.70;99.90;;;;;;5080647;28;20479;-84
2021/07/16 01:04:53;;;;;;;5.37;4.83;;;17.40;99.90;;;;;;5081726;28;20484;-84
2021/07/16 01:07:19;;;;;;;4.73;4.30;;;17.30;99.90;;;;;;5082025;28;20401;-84
2021/07/16 01:09:50;;;;;;;8.03;5.47;;;17.50;99.90;;;;;;5081047;28;20468;-84
2021/07/16 01:12:17;;;;;;;5.93;5.03;;;17.50;99.90;;;;;;5081113;28;20885;-84
2021/07/16 01:14:43;;;;;;;4.40;4.00;;;17.50;99.90;;;;;;5081525;28;20393;-83
2021/07/16 01:17:09;;;;;;;5.60;4.63;;;17.60;99.90;;;;;;5079946;28;20397;-84
2021/07/16 01:19:52;;;;;;;4.70;4.27;;;17.50;99.90;;;;;;5090282;28;20431;-84
2021/07/16 01:22:21;;;;;;;4.37;4.00;;;17.60;99.90;;;;;;5090252;28;20562;-84
2021/07/16 01:24:47;;;;;;;4.07;3.63;;;17.60;99.90;;;;;;5091732;28;20382;-84
2021/07/16 01:27:13;;;;;;;4.73;4.23;;;17.60;99.90;;;;;;5083778;28;20443;-84
2021/07/16 01:29:39;;;;;;;3.77;3.40;;;17.60;99.90;;;;;;5083742;28;20431;-84
2021/07/16 01:32:05;;;;;;;7.80;3.80;;;17.60;99.90;;;;;;5086005;28;20513;-84
2021/07/16 01:34:31;;;;;;;5.40;4.37;;;17.60;99.90;;;;;;5092204;28;20250;-82
2021/07/16 01:36:57;;;;;;;4.70;4.00;;;17.60;99.90;;;;;;5084389;28;20390;-84
2021/07/16 01:39:23;;;;;;;6.73;3.90;;;17.60;99.90;;;;;;5080607;28;20230;-84
2021/07/16 01:41:49;;;;;;;8.70;5.73;;;17.60;99.90;;;;;;5080352;28;20187;-85
2021/07/16 01:44:14;;;;;;;5.50;4.93;;;17.50;99.90;;;;;;5080253;28;20182;-84
2021/07/16 01:46:40;;;;;;;4.97;4.57;;;17.50;99.90;;;;;;5080018;28;20194;-84
2021/07/16 01:49:06;;;;;;;7.20;6.33;;;17.40;99.90;;;;;;5081024;28;20217;-85
2021/07/16 01:51:32;;;;;;;5.67;5.17;;;17.30;99.90;;;;;;5079760;28;20175;-84
2021/07/16 01:53:58;;;;;;;8.70;5.63;;;17.00;99.90;;;;;;5080455;28;20205;-84
2021/07/16 01:56:24;;;;;;;5.70;4.90;;;17.10;99.90;;;;;;5081991;28;20398;-82
2021/07/16 01:58:51;;;;;;;7.87;4.70;;;17.20;99.90;;;;;;5084491;28;20398;-83
2021/07/16 02:01:17;;;;;;;8.03;6.27;;;17.20;99.90;;;;;;5083920;28;20354;-84
2021/07/16 02:03:44;;;;;;;5.27;4.87;;;17.30;99.90;;;;;;5081445;28;20434;-84
2021/07/16 02:06:11;;;;;;;6.77;5.50;;;17.30;99.90;;;;;;5080191;28;20164;-84
2021/07/16 02:08:37;;;;;;;6.20;5.13;;;17.30;99.90;;;;;;5080254;28;20893;-84
2021/07/16 02:11:03;;;;;;;5.23;4.83;;;17.20;99.90;;;;;;5080459;28;20395;-84
2021/07/16 02:13:29;;;;;;;5.77;5.17;;;17.20;99.90;;;;;;5080454;28;20609;-84
2021/07/16 02:15:55;;;;;;;5.10;4.60;;;17.30;99.90;;;;;;5078745;28;20556;-84
2021/07/16 02:18:22;;;;;;;4.87;4.50;;;17.30;99.90;;;;;;5079932;28;20254;-84
2021/07/16 02:20:50;;;;;;;6.37;4.63;;;17.20;99.90;;;;;;5079700;28;20390;-84
2021/07/16 02:23:20;;;;;;;5.73;4.80;;;17.30;99.90;;;;;;5079096;28;20413;-84
2021/07/16 02:25:46;;;;;;;4.97;4.53;;;17.30;99.90;;;;;;5078429;28;20448;-84
2021/07/16 02:28:16;;;;;;;8.23;4.40;;;17.20;99.90;;;;;;5080604;28;20397;-84
2021/07/16 02:30:43;;;;;;;5.77;5.17;;;17.30;99.90;;;;;;5080441;28;20408;-84
2021/07/16 02:33:09;;;;;;;5.50;5.10;;;17.20;99.90;;;;;;5080861;28;20428;-84
2021/07/16 02:35:36;;;;;;;7.00;4.73;;;17.10;99.90;;;;;;5080130;28;20386;-84
2021/07/16 02:38:04;;;;;;;5.03;4.63;;;17.10;99.90;;;;;;5062582;28;20513;-84
2021/07/16 02:40:31;;;;;;;4.37;4.00;;;17.10;99.90;;;;;;5080494;28;20398;-84
2021/07/16 02:42:57;;;;;;;3.70;3.40;;;17.10;99.90;;;;;;5079324;28;20477;-84
2021/07/16 02:45:24;;;;;;;4.50;4.10;;;17.10;99.90;;;;;;5081213;28;20459;-84
2021/07/16 02:47:51;;;;;;;6.20;4.73;;;17.10;99.90;;;;;;5080811;28;20160;-84
2021/07/16 02:50:21;;;;;;;4.13;3.80;;;17.10;99.90;;;;;;5082124;28;20431;-84
2021/07/16 02:52:47;;;;;;;5.57;5.07;;;17.00;99.90;;;;;;5088382;28;20451;-83
2021/07/16 02:55:13;;;;;;;4.50;4.10;;;16.90;99.90;;;;;;5078508;28;20393;-84
2021/07/16 02:57:39;;;;;;;6.40;4.73;;;16.80;99.90;;;;;;5077972;28;20191;-82
2021/07/16 03:00:10;;;;;;;6.70;5.00;;;16.80;99.90;;;;;;5078463;28;20397;-85
2021/07/16 03:02:40;;;;;;;5.37;4.87;;;16.90;99.90;;;;;;5078292;28;20445;-84
2021/07/16 03:05:08;;;;;;;5.07;4.40;;;16.90;99.90;;;;;;5077260;28;20402;-82
2021/07/16 03:07:34;;;;;;;5.53;4.90;;;16.90;99.90;;;;;;5077224;28;20386;-83
2021/07/16 03:10:00;;;;;;;11.47;5.10;;;16.80;99.90;;;;;;5060781;28;20473;-84
2021/07/16 03:12:25;;;;;;;6.53;5.80;;;16.80;99.90;;;;;;5078169;28;20497;-83
2021/07/16 03:14:51;;;;;;;8.70;5.70;;;16.60;99.90;;;;;;5078148;28;20170;-83
2021/07/16 03:17:17;;;;;;;6.77;5.90;;;16.60;99.90;;;;;;5078011;28;20159;-84
2021/07/16 03:19:43;;;;;;;5.73;5.23;;;16.60;99.90;;;;;;5078011;28;20159;-82
2021/07/16 03:22:12;;;;;;;6.13;5.50;;;16.40;99.90;;;;;;5076088;28;20616;-82
2021/07/16 03:24:38;;;;;;;7.70;5.40;;;16.10;99.90;;;;;;5077962;28;20155;-83
2021/07/16 03:27:04;;;;;;;7.80;6.63;;;16.20;99.90;;;;;;5078006;28;20717;-83
2021/07/16 03:29:30;;;;;;;10.23;6.47;;;16.40;99.90;;;;;;5078040;28;20723;-84
2021/07/16 03:31:56;;;;;;;6.90;5.73;;;16.30;99.90;;;;;;5078052;28;20396;-83
2021/07/16 03:34:22;;;;;;;6.77;6.03;;;16.10;99.90;;;;;;5077822;28;20167;-84
2021/07/16 03:36:47;;;;;;;8.83;6.47;;;15.90;99.90;;;;;;5076569;28;20185;-84
2021/07/16 03:39:13;;;;;;;14.43;6.70;;;15.80;99.90;;;;;;5077616;28;20690;-84
2021/07/16 03:41:39;;;;;;;6.93;6.37;;;15.90;99.90;;;;;;5077981;28;20189;-84
2021/07/16 03:44:05;;;;;;;7.80;6.63;;;16.00;99.90;;;;;;5078527;28;20159;-84
2021/07/16 03:46:31;;;;;;;6.27;5.67;;;16.20;99.90;;;;;;5078442;28;20159;-84
2021/07/16 03:48:57;;;;;;;6.70;6.00;;;16.40;99.90;;;;;;5077733;28;20735;-84
2021/07/16 03:51:23;;;;;;;5.47;4.97;;;16.40;99.90;;;;;;5077611;28;20618;-84
2021/07/16 03:53:49;;;;;;;4.60;4.20;;;16.50;99.90;;;;;;5076751;28;20159;-83
2021/07/16 03:56:16;;;;;;;8.10;3.90;;;16.50;99.90;;;;;;5077620;28;20394;-84
2021/07/16 03:58:45;;;;;;;7.30;5.67;;;16.60;99.90;;;;;;5077785;28;20390;-82
2021/07/16 04:01:11;;;;;;;5.37;4.87;;;16.40;99.90;;;;;;5077615;28;20445;-82
2021/07/16 04:03:37;;;;;;;7.23;6.10;;;16.20;99.90;;;;;;5078007;28;20404;-83
2021/07/16 04:06:03;;;;;;;5.80;5.30;;;16.30;99.90;;;;;;5076149;28;20429;-84
2021/07/16 04:08:29;;;;;;;5.90;5.10;;;16.60;99.90;;;;;;5077186;28;20195;-84
2021/07/16 04:10:54;;;;;;;8.37;5.87;;;16.40;99.90;;;;;;5077046;28;20286;-84
2021/07/16 04:13:20;;;;;;;9.00;5.60;;;16.00;99.90;;;;;;5077265;28;20226;-84
2021/07/16 04:15:46;;;;;;;5.70;4.90;;;15.80;99.90;;;;;;5077473;28;20723;-84
2021/07/16 04:18:12;;;;;;;6.80;5.77;;;15.90;99.90;;;;;;5076988;28;20629;-84
2021/07/16 04:20:40;;;;;;;7.40;5.40;;;16.10;99.90;;;;;;5077610;28;20225;-85
2021/07/16 04:23:06;;;;;;;5.47;4.80;;;16.20;99.90;;;;;;5076929;28;20451;-82
2021/07/16 04:25:32;;;;;;;5.73;5.17;;;16.30;99.90;;;;;;5077588;28;20791;-84
2021/07/16 04:28:00;;;;;;;5.63;5.03;;;16.40;99.90;;;;;;5077218;28;20425;-83
2021/07/16 04:30:27;;;;;;;6.80;5.27;;;16.10;99.90;;;;;;5077569;28;20217;-83
2021/07/16 04:32:55;;;;;;;6.20;5.60;;;16.00;99.90;;;;;;5077215;28;20390;-84
2021/07/16 04:35:22;;;;;;;6.10;5.50;;;16.00;99.90;;;;;;5081167;28;20789;-84
2021/07/16 04:37:48;;;;;;;5.97;4.93;;;16.20;99.90;;;;;;5082261;28;20421;-83
2021/07/16 04:40:16;;;;;;;5.33;4.83;;;16.20;99.90;;;;;;5082743;28;20410;-84
2021/07/16 04:42:43;;;;;;;7.07;6.10;;;16.30;99.90;;;;;;5080805;28;20523;-83
2021/07/16 04:45:10;;;;;;;7.03;6.10;;;16.40;99.90;;;;;;5082160;28;20453;-83
2021/07/16 04:47:36;;;;;;;7.93;6.17;;;16.20;99.90;;;;;;5084610;28;20368;-84
2021/07/16 04:50:03;;;;;;;6.63;5.70;;;16.00;99.90;;;;;;5081349;28;20390;-83
2021/07/16 04:52:28;;;;;;;6.30;5.27;;;16.20;99.90;;;;;;5081213;28;20167;-84
2021/07/16 04:54:54;;;;;;;7.93;6.10;;;16.40;99.90;;;;;;5081567;28;20455;-84
2021/07/16 04:57:20;;;;;;;5.87;5.27;;;16.50;99.90;;;;;;5089850;28;20164;-84
2021/07/16 04:59:46;;;;;;;7.60;5.30;;;16.60;99.90;;;;;;5086444;28;20171;-84
2021/07/16 05:02:11;;;;;;;5.70;5.27;;;16.70;99.90;;;;;;5081779;28;20234;-84
2021/07/16 05:04:37;;;;;;;6.37;5.67;;;16.40;99.90;;;;;;5081296;28;20164;-84
2021/07/16 05:07:03;;;;;;;6.90;6.20;;;16.50;99.90;;;;;;5080025;28;20155;-84
2021/07/16 05:09:29;;;;;;;9.07;6.10;;;16.70;99.90;;;;;;5079921;28;20195;-84
2021/07/16 05:11:55;;;;;;;6.60;6.00;;;16.80;99.90;;;;;;5081418;28;20390;-84
2021/07/16 05:14:21;;;;;;;7.27;5.57;;;16.80;99.90;;;;;;5081157;28;20597;-84
2021/07/16 05:16:46;;;;;;;6.93;6.17;;;16.80;99.90;;;;;;5082731;28;20167;-84
2021/07/16 05:19:12;;;;;;;6.47;5.87;;;16.40;99.90;;;;;;5080602;28;20167;-84
2021/07/16 05:21:38;;;;;;;7.50;6.23;;;16.20;99.90;;;;;;5081142;28;20191;-84
2021/07/16 05:24:05;;;;;;;6.63;5.80;;;16.40;99.90;;;;;;5080985;28;20155;-84
2021/07/16 05:26:31;;;;;;;7.73;6.37;;;16.50;99.90;;;;;;5080705;28;20585;-84
2021/07/16 05:28:57;;;;;;;7.13;4.97;;;16.70;99.90;;;;;;5080789;28;20394;-84
2021/07/16 05:31:23;;;;;;;5.37;4.80;;;16.80;99.90;;;;;;5081214;28;20159;-83
2021/07/16 05:33:49;;;;;;;7.03;5.90;;;16.90;99.90;;;;;;5081310;28;20217;-84
2021/07/16 05:36:15;;;;;;;7.27;5.83;;;16.90;99.90;;;;;;5081803;28;20398;-84
2021/07/16 05:38:41;;;;;;;9.90;5.47;;;16.90;99.90;;;;;;5077113;28;20460;-83
2021/07/16 05:41:08;;;;;;;8.20;5.50;;;17.00;99.90;;;;;;5075300;28;20465;-84
2021/07/16 05:43:35;;;;;;;6.40;5.80;;;16.90;99.90;;;;;;5065608;28;20427;-84
2021/07/16 05:46:02;;;;;;;7.30;6.30;;;17.00;99.90;;;;;;5063340;28;20434;-84
2021/07/16 05:48:31;;;;;;;10.67;6.00;;;17.00;99.90;;;;;;5060611;28;20399;-84
2021/07/16 05:50:57;;;;;;;8.27;7.00;;;17.10;99.90;;;;;;5072090;28;20508;-84
2021/07/16 05:53:23;;;;;;;9.33;7.17;;;17.10;99.90;;;;;;5081012;28;20390;-84
2021/07/16 05:55:49;;;;;;;8.20;6.07;;;17.00;99.90;;;;;;5071610;28;20422;-84
2021/07/16 05:58:15;;;;;;;7.80;6.83;;;17.10;99.90;;;;;;5061906;28;20229;-84
2021/07/16 06:00:40;;;;;;;6.77;6.10;;;16.80;99.90;;;;;;5082354;28;20183;-84
2021/07/16 06:03:09;;;;;;;5.40;4.83;;;16.90;99.90;;;;;;5099954;28;20210;-84
2021/07/16 06:05:36;;;;;;;6.87;6.17;;;17.00;99.90;;;;;;5079355;28;20667;-84
2021/07/16 06:08:03;;;;;;;10.40;7.20;;;17.00;99.90;;;;;;5077383;28;20849;-84
2021/07/16 06:10:30;;;;;;;7.67;6.80;;;17.10;99.90;;;;;;5068679;28;20426;-83
2021/07/16 06:12:56;;;;;;;8.47;6.63;;;17.20;99.90;;;;;;5076159;28;20476;-82
2021/07/16 06:15:23;;;;;;;9.23;6.00;;;17.20;99.90;;;;;;5056360;28;20407;-82
2021/07/16 06:17:49;;;;;;;9.20;7.90;;;17.00;99.90;;;;;;5059387;28;20418;-81
2021/07/16 06:20:16;;;;;;;10.93;7.90;;;17.20;99.90;;;;;;5063459;28;20505;-84
2021/07/16 06:22:43;;;;;;;9.67;7.87;;;17.40;99.90;;;;;;5059177;28;20443;-84
2021/07/16 06:25:10;;;;;;;8.27;7.47;;;17.40;99.90;;;;;;5047084;28;20418;-84
2021/07/16 06:27:38;;;;;;;8.83;7.90;;;17.50;99.90;;;;;;5074660;28;20840;-84
2021/07/16 06:30:05;;;;;;;10.83;8.17;;;17.50;99.90;;;;;;5066222;28;20409;-83
2021/07/16 06:32:31;;;;;;;7.73;6.93;;;17.60;99.90;;;;;;5060209;28;20422;-84
2021/07/16 06:34:57;;;;;;;11.53;8.53;;;17.50;99.90;;;;;;5058179;28;20736;-84
2021/07/16 06:37:23;;;;;;;10.87;8.10;;;17.20;99.90;;;;;;5072045;28;20262;-84
2021/07/16 06:39:48;;;;;;;12.90;8.33;;;17.20;99.90;;;;;;5079893;28;20219;-84
2021/07/16 06:42:14;;;;;;;8.53;6.47;;;17.40;99.90;;;;;;5073960;28;20256;-84
2021/07/16 06:44:40;;;;;;;9.53;7.50;;;17.60;99.90;;;;;;5069246;28;20251;-84
2021/07/16 06:47:10;;;;;;;8.07;6.83;;;17.70;99.90;;;;;;5077383;28;20447;-84
2021/07/16 06:49:36;;;;;;;7.87;7.27;;;18.00;99.90;;;;;;5064192;28;20172;-83
2021/07/16 06:52:02;;;;;;;8.10;7.30;;;18.20;99.90;;;;;;5080153;28;20400;-83
2021/07/16 06:54:29;;;;;;;6.17;5.57;;;18.40;99.90;;;;;;5079941;28;20257;-83
2021/07/16 06:56:55;;;;;;;6.10;5.60;;;18.50;99.90;;;;;;5060486;28;20533;-83
2021/07/16 06:59:25;;;;;;;8.63;5.83;;;18.60;99.90;;;;;;5070089;28;20417;-83
2021/07/16 07:01:51;;;;;;;6.90;6.20;;;18.20;99.90;;;;;;5067789;28;20445;-83
2021/07/16 07:04:17;;;;;;;6.40;5.80;;;18.00;99.90;;;;;;5081979;28;20422;-83
2021/07/16 07:06:43;;;;;;;7.87;7.20;;;18.00;99.90;;;;;;5070076;28;20912;-83
2021/07/16 07:09:10;;;;;;;8.47;7.77;;;18.30;99.90;;;;;;5078573;28;20479;-82
2021/07/16 07:11:36;;;;;;;8.40;7.57;;;18.60;99.90;;;;;;5093559;28;20883;-82
2021/07/16 07:14:03;;;;;;;7.90;7.17;;;18.70;99.90;;;;;;5061694;28;20398;-83
2021/07/16 07:16:29;;;;;;;9.33;7.00;;;18.80;99.90;;;;;;5078986;28;20401;-82
2021/07/16 07:18:54;;;;;;;9.40;8.30;;;18.90;99.90;;;;;;5077995;28;20405;-82
2021/07/16 07:21:20;;;;;;;12.83;8.47;;;19.10;99.90;;;;;;5060450;28;20207;-82
2021/07/16 07:23:46;;;;;;;7.33;6.63;;;19.00;99.90;;;;;;5070623;28;20175;-82
2021/07/16 07:26:12;;;;;;;7.90;7.13;;;18.90;99.90;;;;;;5069025;28;20167;-82
2021/07/16 07:28:38;;;;;;;7.50;6.80;;;18.90;99.90;;;;;;5078953;28;20175;-81
2021/07/16 07:31:04;;;;;;;8.80;6.87;;;18.90;99.90;;;;;;5084031;28;20398;-85
2021/07/16 07:33:30;;;;;;;6.30;5.77;;;18.00;99.90;;;;;;5086590;28;20168;-82
2021/07/16 07:35:56;;;;;;;6.33;5.73;;;18.00;99.90;;;;;;5077147;28;20398;-82
2021/07/16 07:38:22;;;;;;;7.90;7.10;;;17.70;99.90;;;;;;5075564;28;20473;-82
2021/07/16 07:40:49;;;;;;;7.00;6.07;;;17.80;99.90;;;;;;5076623;28;20478;-83
2021/07/16 07:43:15;;;;;;;6.47;5.87;;;18.10;99.90;;;;;;5062666;28;20473;-83
2021/07/16 07:45:41;;;;;;;8.17;7.07;;;18.40;99.90;;;;;;5067870;28;20431;-81
2021/07/16 07:48:07;;;;;;;6.73;6.07;;;18.70;99.90;;;;;;5061915;28;20460;-83
2021/07/16 07:50:34;;;;;;;6.33;5.73;;;18.90;99.90;;;;;;5078998;28;20167;-83
2021/07/16 07:53:00;;;;;;;6.57;5.97;;;19.10;99.90;;;;;;5073415;28;20441;-82
2021/07/16 07:55:26;;;;;;;7.23;6.53;;;19.10;99.90;;;;;;5070542;28;20747;-83
2021/07/16 07:57:54;;;;;;;10.73;6.93;;;18.90;99.90;;;;;;5058155;28;20758;-83
2021/07/16 08:00:23;;;;;;;7.77;6.90;;;18.80;99.90;;;;;;5058625;28;20429;-83
2021/07/16 08:02:49;;;;;;;8.10;6.70;;;18.80;99.90;;;;;;5070598;28;20453;-83
2021/07/16 08:05:15;;;;;;;8.03;7.23;;;18.90;99.90;;;;;;5073043;28;20415;-83
2021/07/16 08:07:41;;;;;;;9.27;6.83;;;19.20;99.90;;;;;;5068571;28;20434;-83
2021/07/16 08:10:09;;;;;;;9.20;6.20;;;19.10;99.90;;;;;;5058324;28;20172;-83
2021/07/16 08:12:35;;;;;;;8.30;6.80;;;19.10;99.90;;;;;;5059352;28;20418;-83
2021/07/16 08:15:03;;;;;;;7.60;6.60;;;19.20;99.90;;;;;;5057825;28;20422;-83
2021/07/16 08:17:29;;;;;;;6.73;6.03;;;19.40;99.90;;;;;;5067681;28;20421;-83
2021/07/16 08:19:54;;;;;;;8.90;5.77;;;19.70;99.90;;;;;;5067487;28;21005;-83
2021/07/16 08:22:20;;;;;;;6.67;5.30;;;20.00;99.90;;;;;;5062834;28;20291;-83
2021/07/16 08:24:48;;;;;;;5.97;5.37;;;20.10;99.90;;;;;;5056985;28;20503;-83
2021/07/16 08:27:14;;;;;;;5.90;5.20;;;20.00;99.90;;;;;;5066609;28;20516;-82
2021/07/16 08:29:39;;;;;;;4.40;4.00;;;20.00;99.90;;;;;;5076555;28;21230;-82
2021/07/16 08:32:06;;;;;;;5.03;4.63;;;20.30;99.90;;;;;;5077271;28;20460;-83
2021/07/16 08:34:32;;;;;;;4.37;4.07;;;20.30;99.90;;;;;;5069332;28;20175;-82
2021/07/16 08:36:58;;;;;;;5.77;5.20;;;20.60;99.90;;;;;;5066564;28;20470;-82
2021/07/16 08:39:23;;;;;;;7.43;4.20;;;20.80;99.90;;;;;;5055409;28;20243;-83
2021/07/16 08:41:51;;;;;;;4.63;4.23;;;20.90;99.90;;;;;;5062405;28;20198;-83
2021/07/16 08:44:18;;;;;;;5.07;4.67;;;21.00;99.90;;;;;;5070946;28;20171;-83
2021/07/16 08:46:45;;;;;;;4.80;4.40;;;21.10;99.90;;;;;;5076749;28;20417;-82
2021/07/16 08:49:31;;;;;;;5.30;4.90;;;21.10;99.90;;;;;;5073364;28;20422;-83
2021/07/16 08:51:57;;;;;;;4.10;3.70;;;21.10;99.90;;;;;;5054229;28;20458;-83
2021/07/16 08:54:23;;;;;;;3.87;3.57;;;21.20;99.90;;;;;;5038350;28;20911;-83
2021/07/16 08:56:49;;;;;;;4.73;4.33;;;21.40;99.90;;;;;;5050017;28;20389;-84
2021/07/16 08:59:15;;;;;;;3.30;3.10;;;21.40;99.90;;;;;;5047083;28;20191;-83
2021/07/16 09:01:46;;;;;;;3.93;3.63;;;21.60;99.90;;;;;;5044956;28;20341;-83
2021/07/16 09:04:13;;;;;;;5.63;3.53;;;21.60;99.90;;;;;;5018669;28;20626;-83
2021/07/16 09:06:52;;;;;;;4.63;4.23;;;21.80;99.90;;;;;;5055279;28;20406;-83
2021/07/16 09:09:22;;;;;;;3.80;3.43;;;22.00;99.90;;;;;;5063453;28;20465;-83
2021/07/16 09:11:54;;;;;;;4.23;3.90;;;21.80;99.90;;;;;;5065492;28;20487;-83
2021/07/16 09:14:22;;;;;;;4.80;3.70;;;22.10;99.90;;;;;;5074868;28;20432;-83
2021/07/16 09:16:59;;;;;;;3.53;3.27;;;22.30;99.90;;;;;;5073530;28;20439;-83
2021/07/16 09:19:34;;;;;;;4.53;3.07;;;22.40;99.90;;;;;;5075720;28;20564;-82
2021/07/16 09:22:20;;;;;;;3.33;3.00;;;22.30;99.90;;;;;;5066871;28;20487;-83
2021/07/16 09:25:04;;;;;;;3.20;3.00;;;22.40;99.90;;;;;;5078171;28;20489;-83
2021/07/16 09:27:40;;;;;;;2.87;2.67;;;22.60;99.90;;;;;;5083707;28;20555;-83
2021/07/16 09:30:24;;;;;;;3.27;2.97;;;22.40;99.90;;;;;;5081119;28;20425;-84
2021/07/16 09:32:56;;;;;;;3.37;2.90;;;22.40;99.90;;;;;;5077970;28;20841;-83
2021/07/16 09:35:27;;;;;;;3.40;3.10;;;22.50;99.90;;;;;;5063408;28;20420;-83
2021/07/16 09:37:58;;;;;;;3.27;3.07;;;22.30;99.90;;;;;;5090562;28;20397;-83
2021/07/16 09:40:28;;;;;;;3.73;3.40;;;22.40;99.90;;;;;;5078706;28;20462;-82
2021/07/16 09:43:04;;;;;;;3.17;2.87;;;22.30;99.90;;;;;;5076359;28;20505;-83
2021/07/16 09:45:31;;;;;;;2.90;2.57;;;22.60;99.90;;;;;;5075050;28;20512;-80
2021/07/16 09:47:58;;;;;;;2.73;2.53;;;22.60;99.90;;;;;;5092935;28;20464;-83
2021/07/16 09:50:25;;;;;;;5.10;2.80;;;22.60;99.90;;;;;;5093578;28;20508;-82
2021/07/16 09:53:12;;;;;;;2.47;2.27;;;22.80;99.90;;;;;;5078293;28;20470;-83
2021/07/16 09:55:41;;;;;;;2.50;2.30;;;23.00;99.90;;;;;;5063567;28;20465;-83
2021/07/16 09:58:23;;;;;;;2.63;2.27;;;23.20;99.90;;;;;;5082932;28;20409;-83
2021/07/16 10:00:51;;;;;;;2.10;2.00;;;23.20;99.90;;;;;;5067925;28;20426;-83
2021/07/16 10:03:18;;;;;;;3.30;2.20;;;23.20;99.90;;;;;;5061483;28;20464;-83
2021/07/16 10:05:44;;;;;;;2.70;2.03;;;23.50;99.90;;;;;;5061063;28;20478;-83
2021/07/16 10:08:11;;;;;;;1.70;1.60;;;23.60;99.90;;;;;;5070006;28;20457;-82
2021/07/16 10:10:38;;;;;;;2.23;2.03;;;23.70;99.90;;;;;;5059965;28;20418;-83
2021/07/16 10:13:06;;;;;;;2.10;1.87;;;23.60;99.90;;;;;;5073663;28;20440;-80
2021/07/16 10:15:32;;;;;;;2.23;2.10;;;23.70;99.90;;;;;;5079747;28;20496;-83
2021/07/16 10:18:00;;;;;;;2.33;2.23;;;23.90;99.90;;;;;;5079519;28;20409;-83
2021/07/16 10:20:26;;;;;;;1.97;1.87;;;23.70;99.90;;;;;;5080182;28;20406;-83
2021/07/16 10:22:54;;;;;;;2.50;2.30;;;24.10;99.90;;;;;;5078947;28;20441;-82
2021/07/16 10:25:22;;;;;;;3.10;1.90;;;24.30;99.90;;;;;;5079328;28;20492;-84
2021/07/16 10:27:48;;;;;;;2.50;2.30;;;24.30;99.90;;;;;;5079929;28;20405;-83
2021/07/16 10:30:17;;;;;;;2.20;1.97;;;24.40;99.90;;;;;;5077994;28;20398;-82
2021/07/16 10:32:47;;;;;;;2.27;1.63;;;24.60;99.90;;;;;;5079614;28;20176;-83
2021/07/16 10:35:16;;;;;;;1.93;1.83;;;24.70;99.90;;;;;;5079746;28;20393;-83
2021/07/16 10:37:43;;;;;;;3.50;3.20;;;24.60;99.90;;;;;;5079238;28;20510;-82
2021/07/16 10:40:28;;;;;;;4.00;2.17;;;24.30;99.90;;;;;;5079015;28;20543;-83
2021/07/16 10:42:54;;;;;;;2.10;1.90;;;24.00;99.90;;;;;;5079254;28;20496;-83
2021/07/16 10:45:32;;;;;;;2.30;2.07;;;23.90;99.90;;;;;;5079764;28;20420;-82
2021/07/16 10:48:16;;;;;;;1.80;1.70;;;23.90;99.90;;;;;;5079163;28;20459;-84
2021/07/16 10:50:43;;;;;;;2.27;2.07;;;24.40;99.90;;;;;;5079564;28;20862;-83
2021/07/16 10:53:16;;;;;;;2.00;1.90;;;24.70;99.90;;;;;;5074746;28;20465;-83
2021/07/16 10:56:04;;;;;;;2.93;1.93;;;24.90;99.90;;;;;;5079608;28;20417;-84
2021/07/16 10:58:43;;;;;;;2.67;2.40;;;25.20;99.90;;;;;;5064135;28;20428;-82
2021/07/16 11:01:10;;;;;;;1.93;1.83;;;25.30;99.90;;;;;;5079400;28;20463;-84
2021/07/16 11:03:50;;;;;;;2.43;2.23;;;25.50;99.90;;;;;;5079532;28;20743;-83
2021/07/16 11:06:18;;;;;;;3.10;2.03;;;25.60;99.90;;;;;;5078549;28;20432;-83
2021/07/16 11:08:57;;;;;;;2.10;1.90;;;25.50;99.90;;;;;;5078998;28;20436;-83
2021/07/16 11:11:39;;;;;;;2.10;2.00;;;25.60;99.90;;;;;;5061741;28;20401;-83
2021/07/16 11:14:18;;;;;;;2.30;2.20;;;25.90;99.90;;;;;;5079858;28;20397;-83
2021/07/16 11:16:44;;;;;;;2.37;2.17;;;26.00;99.90;;;;;;5079266;28;20409;-82
2021/07/16 11:19:21;;;;;;;2.40;2.20;;;26.10;99.90;;;;;;5081321;28;20409;-82
2021/07/16 11:22:04;;;;;;;2.30;2.10;;;26.10;99.90;;;;;;5081215;28;20620;-83
2021/07/16 11:24:33;;;;;;;2.10;1.90;;;26.20;99.90;;;;;;5082003;28;20885;-83
2021/07/16 11:27:09;;;;;;;2.70;2.50;;;26.30;99.90;;;;;;5079866;28;20398;-83
2021/07/16 11:29:45;;;;;;;2.20;2.00;;;26.40;99.90;;;;;;5061438;28;20485;-83
2021/07/16 11:32:20;;;;;;;2.03;1.83;;;26.60;99.90;;;;;;5028808;28;20414;-83
2021/07/16 11:35:00;;;;;;;2.50;2.30;;;26.80;99.90;;;;;;5078238;28;20405;-83
2021/07/16 11:37:40;;;;;;;2.00;1.90;;;26.90;99.90;;;;;;5061487;28;20495;-83
2021/07/16 11:40:18;;;;;;;2.57;1.50;;;27.00;99.90;;;;;;5045845;28;20477;-83
2021/07/16 11:42:55;;;;;;;2.70;2.50;;;27.20;99.90;;;;;;5062240;28;20641;-83
2021/07/16 11:45:30;;;;;;;2.60;2.23;;;27.30;99.90;;;;;;5045588;28;20421;-83
2021/07/16 11:47:57;;;;;;;2.03;1.93;;;27.50;99.90;;;;;;5029081;28;20417;-83
2021/07/16 11:50:25;;;;;;;2.63;2.43;;;27.50;99.90;;;;;;5042240;28;20410;-83
2021/07/16 11:52:53;;;;;;;2.30;2.10;;;27.60;99.90;;;;;;5041249;28;20467;-83
2021/07/16 11:55:23;;;;;;;1.93;1.83;;;27.80;99.90;;;;;;5079487;28;20409;-83
2021/07/16 11:57:54;;;;;;;2.10;2.00;;;27.80;99.90;;;;;;5063801;28;20487;-83
2021/07/16 12:00:23;;;;;;;3.10;2.80;;;28.20;99.90;;;;;;5066272;28;20404;-83
2021/07/16 12:02:49;;;;;;;2.87;2.60;;;28.40;99.90;;;;;;5083358;28;20455;-83
2021/07/16 12:05:15;;;;;;;2.50;2.33;;;28.70;99.90;;;;;;5058472;28;20413;-83
2021/07/16 12:07:46;;;;;;;2.70;2.00;;;29.00;99.90;;;;;;5059239;28;20186;-83
2021/07/16 12:10:16;;;;;;;2.87;2.40;;;29.10;99.90;;;;;;5060431;28;20430;-83
2021/07/16 12:12:43;;;;;;;2.77;2.53;;;29.40;99.90;;;;;;5073749;28;20531;-84
2021/07/16 12:15:11;;;;;;;2.40;2.20;;;29.40;99.90;;;;;;5076890;28;20432;-84
2021/07/16 12:17:43;;;;;;;2.87;2.57;;;28.90;99.90;;;;;;5077288;28;20401;-85
2021/07/16 12:20:11;;;;;;;2.53;2.20;;;28.80;99.90;;;;;;5076770;28;20425;-85
2021/07/16 12:22:42;;;;;;;2.00;1.90;;;29.00;99.90;;;;;;5076217;28;20297;-85
2021/07/16 12:25:10;;;;;;;2.47;2.28;;;29.00;99.30;;;;;;5076406;28;20224;-84
2021/07/16 12:27:35;;;;;;;2.40;2.25;;;29.40;99.90;;;;;;5065827;28;20301;-85
2021/07/16 12:30:06;;;;;;;2.97;2.78;;;29.70;99.50;;;;;;5061538;28;20594;-85
2021/07/16 12:32:35;;;;;;;3.30;2.55;;;30.10;98.70;;;;;;5077925;28;20237;-84
2021/07/16 12:35:13;;;;;;;3.50;2.33;;;30.00;98.60;;;;;;5078028;28;20242;-84
2021/07/16 12:37:40;;;;;;;3.00;2.60;;;30.20;96.70;;;;;;5078172;28;20278;-85
2021/07/16 12:40:06;;;;;;;2.60;2.40;;;30.40;96.70;;;;;;5077995;28;20223;-84
2021/07/16 12:42:35;;;;;;;1.90;1.80;;;30.90;95.70;;;;;;5077942;28;20189;-83
2021/07/16 12:45:10;;;;;;;2.53;2.33;;;30.70;94.10;;;;;;5078410;28;20163;-84
2021/07/16 12:47:51;;;;;;;2.75;2.55;;;31.10;92.90;;;;;;5085861;28;20154;-84
2021/07/16 12:50:20;;;;;;;2.63;2.42;;;31.50;92.10;;;;;;5080299;28;20158;-85